createdAt,value
2019-02-05T00:00:31.190Z,25.8
2019-02-05T00:01:18.613Z,25.9
2019-02-05T00:02:08.664Z,26
2019-02-05T00:02:58.711Z,26.1
2019-02-05T00:03:49.365Z,26.3
2019-02-05T00:04:37.776Z,26.4
2019-02-05T00:05:29.154Z,26.5
2019-02-05T00:06:19.363Z,26.5
2019-02-05T00:07:08.993Z,26.6
2019-02-05T00:07:59.330Z,26.4
2019-02-05T00:08:49.948Z,26.3
2019-02-05T00:09:42.006Z,26.3
2019-02-05T00:10:28.756Z,26.1
2019-02-05T00:11:19.001Z,26.1
2019-02-05T00:12:09.430Z,25.9
2019-02-05T00:12:59.493Z,25.8
2019-02-05T00:13:48.999Z,25.8
2019-02-05T00:14:39.856Z,25.8
2019-02-05T00:15:30.538Z,25.6
2019-02-05T00:16:20.015Z,25.5
2019-02-05T00:17:09.758Z,25.4
2019-02-05T00:17:59.661Z,25.4
2019-02-05T00:18:53.659Z,25.3
2019-02-05T00:19:39.878Z,25.3
2019-02-05T00:20:30.038Z,25.3
2019-02-05T00:21:20.103Z,25.4
2019-02-05T00:22:09.778Z,25.4
2019-02-05T00:22:59.645Z,25.5
2019-02-05T00:23:49.728Z,25.6
2019-02-05T00:24:41.253Z,25.7
2019-02-05T00:25:30.144Z,25.8
2019-02-05T00:26:20.915Z,25.9
2019-02-05T00:27:10.985Z,26
2019-02-05T00:28:03.635Z,26.1
2019-02-05T00:28:51.086Z,26.3
2019-02-05T00:29:40.975Z,26.3
2019-02-05T00:30:30.954Z,26.4
2019-02-05T00:31:21.085Z,26.6
2019-02-05T00:32:10.494Z,26.6
2019-02-05T00:33:00.607Z,26.6
2019-02-05T00:33:51.348Z,26.5
2019-02-05T00:34:40.967Z,26.4
2019-02-05T00:35:31.562Z,26.3
2019-02-05T00:36:20.484Z,26.2
2019-02-05T00:37:13.867Z,26.1
2019-02-05T00:38:01.734Z,25.9
2019-02-05T00:38:51.524Z,25.9
2019-02-05T00:39:41.294Z,25.8
2019-02-05T00:40:32.189Z,25.8
2019-02-05T00:41:21.966Z,25.6
2019-02-05T00:42:12.012Z,25.6
2019-02-05T00:43:01.953Z,25.4
2019-02-05T00:43:52.136Z,25.4
2019-02-05T00:44:42.006Z,25.3
2019-02-05T00:45:32.529Z,25.4
2019-02-05T00:46:23.719Z,25.4
2019-02-05T00:47:11.874Z,25.4
2019-02-05T00:48:02.554Z,25.4
2019-02-05T00:48:52.464Z,25.6
2019-02-05T00:49:42.817Z,25.6
2019-02-05T00:50:32.728Z,25.7
2019-02-05T00:51:22.916Z,25.8
2019-02-05T00:52:13.436Z,25.9
2019-02-05T00:53:02.516Z,26
2019-02-05T00:53:53.411Z,26.1
2019-02-05T00:54:42.760Z,26.3
2019-02-05T00:55:35.328Z,26.4
2019-02-05T00:56:25.493Z,26.4
2019-02-05T00:57:13.355Z,26.6
2019-02-05T00:58:02.891Z,26.6
2019-02-05T00:58:53.457Z,26.6
2019-02-05T00:59:43.018Z,26.5
2019-02-05T01:00:33.400Z,26.4
2019-02-05T01:01:24.185Z,26.3
2019-02-05T01:02:13.435Z,26.2
2019-02-05T01:03:03.990Z,26.1
2019-02-05T01:03:53.483Z,25.9
2019-02-05T01:04:46.878Z,25.9
2019-02-05T01:05:33.405Z,25.8
2019-02-05T01:06:23.987Z,25.8
2019-02-05T01:07:13.750Z,25.6
2019-02-05T01:08:04.402Z,25.6
2019-02-05T01:08:54.182Z,25.5
2019-02-05T01:09:43.387Z,25.4
2019-02-05T01:10:35.556Z,25.3
2019-02-05T01:11:24.459Z,25.4
2019-02-05T01:12:14.119Z,25.3
2019-02-05T01:13:03.299Z,25.4
2019-02-05T01:13:56.505Z,25.4
2019-02-05T01:14:43.839Z,25.6
2019-02-05T01:15:33.384Z,25.6
2019-02-05T01:16:24.558Z,25.7
2019-02-05T01:17:13.962Z,25.8
2019-02-05T01:18:04.567Z,25.9
2019-02-05T01:18:54.863Z,26
2019-02-05T01:19:45.429Z,26.1
2019-02-05T01:20:34.980Z,26.3
2019-02-05T01:21:24.506Z,26.3
2019-02-05T01:22:15.122Z,26.4
2019-02-05T01:23:07.185Z,26.6
2019-02-05T01:23:54.669Z,26.6
2019-02-05T01:24:45.286Z,26.6
2019-02-05T01:25:35.486Z,26.6
2019-02-05T01:26:38.316Z,26.4
2019-02-05T01:27:14.407Z,26.3
2019-02-05T01:28:05.271Z,26.2
2019-02-05T01:28:56.686Z,26.1
2019-02-05T01:29:45.685Z,26
2019-02-05T01:30:35.817Z,25.9
2019-02-05T01:31:26.031Z,25.8
2019-02-05T01:32:18.533Z,25.8
2019-02-05T01:33:05.711Z,25.7
2019-02-05T01:33:55.393Z,25.6
2019-02-05T01:34:45.995Z,25.5
2019-02-05T01:35:35.493Z,25.4
2019-02-05T01:36:25.328Z,25.4
2019-02-05T01:37:15.981Z,25.4
2019-02-05T01:38:06.453Z,25.4
2019-02-05T01:38:55.498Z,25.4
2019-02-05T01:39:45.575Z,25.4
2019-02-05T01:40:36.136Z,25.6
2019-02-05T01:41:29.036Z,25.6
2019-02-05T01:42:15.413Z,25.7
2019-02-05T01:43:05.858Z,25.8
2019-02-05T01:43:55.310Z,25.9
2019-02-05T01:44:46.002Z,26
2019-02-05T01:45:36.197Z,26.1
2019-02-05T01:46:26.828Z,26.3
2019-02-05T01:47:16.691Z,26.4
2019-02-05T01:48:05.638Z,26.4
2019-02-05T01:48:57.022Z,26.6
2019-02-05T01:49:46.530Z,26.6
2019-02-05T01:50:38.773Z,26.7
2019-02-05T01:51:26.867Z,26.6
2019-02-05T01:52:16.217Z,26.5
2019-02-05T01:53:06.234Z,26.4
2019-02-05T01:53:57.062Z,26.3
2019-02-05T01:54:46.587Z,26.1
2019-02-05T01:55:37.267Z,26.1
2019-02-05T01:56:27.549Z,25.9
2019-02-05T01:57:17.559Z,25.9
2019-02-05T01:58:07.104Z,25.8
2019-02-05T01:58:57.169Z,25.8
2019-02-05T01:59:50.095Z,25.6
2019-02-05T02:00:38.171Z,25.6
2019-02-05T02:01:27.664Z,25.5
2019-02-05T02:02:16.569Z,25.4
2019-02-05T02:03:08.029Z,25.4
2019-02-05T02:03:57.522Z,25.4
2019-02-05T02:04:47.904Z,25.4
2019-02-05T02:05:39.321Z,25.4
2019-02-05T02:06:27.209Z,25.6
2019-02-05T02:07:17.286Z,25.6
2019-02-05T02:08:07.949Z,25.7
2019-02-05T02:08:59.511Z,25.8
2019-02-05T02:09:47.713Z,25.9
2019-02-05T02:10:38.161Z,25.9
2019-02-05T02:11:27.914Z,26.1
2019-02-05T02:12:18.896Z,26.2
2019-02-05T02:13:08.013Z,26.3
2019-02-05T02:13:58.728Z,26.4
2019-02-05T02:14:50.490Z,26.5
2019-02-05T02:15:38.580Z,26.6
2019-02-05T02:16:28.948Z,26.6
2019-02-05T02:17:18.811Z,26.4
2019-02-05T02:18:10.017Z,26.4
2019-02-05T02:18:57.261Z,26.3
2019-02-05T02:19:49.168Z,26.1
2019-02-05T02:20:38.692Z,26
2019-02-05T02:21:28.435Z,25.9
2019-02-05T02:22:19.125Z,25.9
2019-02-05T02:23:09.475Z,25.8
2019-02-05T02:24:01.646Z,25.7
2019-02-05T02:24:49.630Z,25.6
2019-02-05T02:25:39.564Z,25.6
2019-02-05T02:26:29.112Z,25.4
2019-02-05T02:27:20.946Z,25.4
2019-02-05T02:28:09.200Z,25.3
2019-02-05T02:28:59.257Z,25.3
2019-02-05T02:29:50.375Z,25.4
2019-02-05T02:30:39.504Z,25.4
2019-02-05T02:31:29.290Z,25.4
2019-02-05T02:32:20.122Z,25.5
2019-02-05T02:33:12.550Z,25.6
2019-02-05T02:33:59.635Z,25.7
2019-02-05T02:34:49.768Z,25.8
2019-02-05T02:35:39.726Z,25.9
2019-02-05T02:36:30.187Z,25.9
2019-02-05T02:37:20.219Z,26.1
2019-02-05T02:38:09.532Z,26.2
2019-02-05T02:39:00.482Z,26.3
2019-02-05T02:39:49.779Z,26.4
2019-02-05T02:40:39.869Z,26.5
2019-02-05T02:41:29.242Z,26.6
2019-02-05T02:42:22.802Z,26.6
2019-02-05T02:43:09.563Z,26.5
2019-02-05T02:44:00.902Z,26.4
2019-02-05T02:44:49.104Z,26.3
2019-02-05T02:45:40.464Z,26.1
2019-02-05T02:46:30.027Z,26.1
2019-02-05T02:47:20.651Z,25.9
2019-02-05T02:48:11.046Z,25.9
2019-02-05T02:49:01.306Z,25.8
2019-02-05T02:49:50.923Z,25.7
2019-02-05T02:50:41.526Z,25.8
2019-02-05T02:51:32.930Z,25.6
2019-02-05T02:52:21.332Z,25.5
2019-02-05T02:53:10.838Z,25.4
2019-02-05T02:54:01.222Z,25.3
2019-02-05T02:54:55.382Z,25.4
2019-02-05T02:55:41.948Z,25.3
2019-02-05T02:56:31.165Z,25.4
2019-02-05T02:57:22.398Z,25.4
2019-02-05T02:58:15.070Z,25.5
2019-02-05T02:59:01.540Z,25.6
2019-02-05T02:59:50.802Z,25.6
2019-02-05T03:00:43.593Z,25.8
2019-02-05T03:01:31.545Z,25.9
2019-02-05T03:02:21.588Z,25.9
2019-02-05T03:03:12.036Z,26.1
2019-02-05T03:04:02.370Z,26.2
2019-02-05T03:04:51.619Z,26.3
2019-02-05T03:08:23.670Z,26.5
2019-02-05T03:09:13.957Z,26.4
2019-02-05T03:10:05.742Z,26.3
2019-02-05T03:10:54.118Z,26.2
2019-02-05T03:11:44.108Z,26.1
2019-02-05T03:12:33.940Z,26
2019-02-05T03:13:26.992Z,25.9
2019-02-05T03:14:14.448Z,25.8
2019-02-05T03:15:04.859Z,25.8
2019-02-05T03:15:55.331Z,25.6
2019-02-05T03:16:45.385Z,25.6
2019-02-05T03:17:34.319Z,25.5
2019-02-05T03:18:24.414Z,25.5
2019-02-05T03:19:17.823Z,25.4
2019-02-05T03:20:05.137Z,25.3
2019-02-05T03:20:54.824Z,25.4
2019-02-05T03:21:45.129Z,25.3
2019-02-05T03:22:34.469Z,25.4
2019-02-05T03:23:25.087Z,25.4
2019-02-05T03:24:15.432Z,25.5
2019-02-05T03:25:07.902Z,25.6
2019-02-05T03:25:54.955Z,25.7
2019-02-05T03:26:45.359Z,25.8
2019-02-05T03:27:35.201Z,25.9
2019-02-05T03:28:25.321Z,26
2019-02-05T03:29:15.142Z,26.1
2019-02-05T03:30:05.316Z,26.2
2019-02-05T03:31:00.117Z,26.3
2019-02-05T03:31:46.010Z,26.4
2019-02-05T03:32:35.904Z,26.5
2019-02-05T03:33:26.482Z,26.6
2019-02-05T03:34:15.710Z,26.6
2019-02-05T03:35:06.806Z,26.6
2019-02-05T03:35:56.161Z,26.5
2019-02-05T03:36:46.603Z,26.4
2019-02-05T03:37:35.546Z,26.3
2019-02-05T03:38:25.442Z,26.2
2019-02-05T03:39:15.902Z,26.1
2019-02-05T03:40:08.208Z,26
2019-02-05T03:40:56.352Z,25.9
2019-02-05T03:41:46.340Z,25.8
2019-02-05T03:42:37.040Z,25.8
2019-02-05T03:43:25.588Z,25.7
2019-02-05T03:44:16.289Z,25.6
2019-02-05T03:45:06.438Z,25.5
2019-02-05T03:45:59.479Z,25.4
2019-02-05T03:46:46.313Z,25.4
2019-02-05T03:47:35.822Z,25.4
2019-02-05T03:48:26.692Z,25.4
2019-02-05T03:49:16.625Z,25.4
2019-02-05T03:50:07.275Z,25.5
2019-02-05T03:50:57.060Z,25.6
2019-02-05T03:51:49.032Z,25.7
2019-02-05T03:52:37.139Z,25.8
2019-02-05T03:53:26.290Z,25.8
2019-02-05T03:54:17.508Z,25.9
2019-02-05T03:55:07.192Z,26.1
2019-02-05T03:55:57.295Z,26.2
2019-02-05T03:56:47.319Z,26.3
2019-02-05T03:59:38.144Z,26.3
2019-02-05T03:59:51.754Z,26.2
2019-02-05T04:00:39.279Z,26.3
2019-02-05T04:01:29.394Z,26.2
2019-02-05T04:02:19.467Z,26.1
2019-02-05T04:03:09.771Z,26.1
2019-02-05T04:03:59.812Z,26.1
2019-02-05T04:04:49.295Z,26.1
2019-02-05T04:05:40.446Z,26
2019-02-05T04:06:29.431Z,25.9
2019-02-05T04:07:19.463Z,25.9
2019-02-05T04:08:10.095Z,25.9
2019-02-05T04:09:02.314Z,26
2019-02-05T04:09:49.773Z,26.1
2019-02-05T04:10:39.977Z,26.2
2019-02-05T04:11:30.063Z,26.3
2019-02-05T04:12:19.328Z,26.4
2019-02-05T04:13:10.160Z,26.5
2019-02-05T04:13:59.933Z,26.6
2019-02-05T04:14:50.531Z,26.6
2019-02-05T04:15:40.614Z,26.6
2019-02-05T04:16:30.415Z,26.6
2019-02-05T04:17:20.164Z,26.4
2019-02-05T04:18:12.556Z,26.3
2019-02-05T04:19:00.277Z,26.2
2019-02-05T04:19:50.675Z,26.1
2019-02-05T04:20:40.689Z,26
2019-02-05T04:21:30.465Z,25.9
2019-02-05T04:22:21.062Z,25.8
2019-02-05T04:23:10.431Z,25.8
2019-02-05T04:24:02.467Z,25.8
2019-02-05T04:24:50.975Z,25.6
2019-02-05T04:25:41.214Z,25.6
2019-02-05T04:26:30.766Z,25.5
2019-02-05T04:27:23.051Z,25.4
2019-02-05T04:28:10.457Z,25.4
2019-02-05T04:29:01.599Z,25.4
2019-02-05T04:29:51.341Z,25.4
2019-02-05T04:30:41.258Z,25.4
2019-02-05T04:31:31.748Z,25.5
2019-02-05T04:32:21.547Z,25.6
2019-02-05T04:33:13.993Z,25.7
2019-02-05T04:34:01.686Z,25.8
2019-02-05T04:34:51.435Z,25.8
2019-02-05T04:35:42.016Z,25.9
2019-02-05T04:36:32.270Z,26
2019-02-05T04:37:21.848Z,26.2
2019-02-05T04:38:11.460Z,26.3
2019-02-05T04:39:01.840Z,26.4
2019-02-05T04:39:52.023Z,26.4
2019-02-05T04:40:42.415Z,26.6
2019-02-05T04:41:32.470Z,26.6
2019-02-05T04:42:25.102Z,26.5
2019-02-05T04:43:11.743Z,26.3
2019-02-05T04:44:01.787Z,26.1
2019-02-05T04:44:52.292Z,26.1
2019-02-05T04:45:42.879Z,25.9
2019-02-05T04:46:32.999Z,25.8
2019-02-05T04:47:22.070Z,25.7
2019-02-05T04:48:13.000Z,25.6
2019-02-05T04:49:02.387Z,25.6
2019-02-05T04:49:52.732Z,25.5
2019-02-05T04:50:42.527Z,25.4
2019-02-05T04:51:35.314Z,25.3
2019-02-05T04:52:22.434Z,25.2
2019-02-05T04:53:13.302Z,25.1
2019-02-05T04:54:03.462Z,25.2
2019-02-05T04:54:52.880Z,25.3
2019-02-05T04:55:42.866Z,25.3
2019-02-05T04:56:33.070Z,25.4
2019-02-05T04:57:24.531Z,25.4
2019-02-05T04:58:13.624Z,25.6
2019-02-05T04:59:03.087Z,25.6
2019-02-05T04:59:53.709Z,25.7
2019-02-05T05:00:45.952Z,25.8
2019-02-05T05:01:33.868Z,25.9
2019-02-05T05:02:24.014Z,26
2019-02-05T05:03:14.051Z,26.1
2019-02-05T05:04:04.303Z,26.3
2019-02-05T05:04:53.019Z,26.3
2019-02-05T05:05:44.163Z,26.4
2019-02-05T05:06:35.538Z,26.4
2019-02-05T05:07:23.708Z,26.3
2019-02-05T05:08:14.289Z,26.3
2019-02-05T05:09:04.877Z,26.1
2019-02-05T05:09:55.941Z,25.9
2019-02-05T05:10:43.901Z,25.9
2019-02-05T05:11:34.298Z,25.8
2019-02-05T05:12:24.229Z,25.6
2019-02-05T05:13:14.213Z,25.6
2019-02-05T05:14:04.456Z,25.5
2019-02-05T05:14:54.546Z,25.4
2019-02-05T05:15:46.611Z,25.3
2019-02-05T05:16:34.326Z,25.3
2019-02-05T05:17:24.004Z,25.2
2019-02-05T05:18:17.811Z,25.1
2019-02-05T05:19:05.596Z,25.1
2019-02-05T05:19:54.875Z,25.1
2019-02-05T05:20:45.149Z,25.2
2019-02-05T05:21:35.847Z,25.3
2019-02-05T05:22:25.431Z,25.4
2019-02-05T05:23:15.385Z,25.4
2019-02-05T05:24:05.732Z,25.6
2019-02-05T05:24:57.025Z,25.6
2019-02-05T05:25:46.037Z,25.7
2019-02-05T05:26:35.234Z,25.8
2019-02-05T05:27:26.279Z,25.9
2019-02-05T05:28:18.034Z,26
2019-02-05T05:29:05.539Z,26.1
2019-02-05T05:29:56.299Z,26.2
2019-02-05T05:30:48.114Z,26.3
2019-02-05T05:31:36.602Z,26.4
2019-02-05T05:32:25.920Z,26.4
2019-02-05T05:33:16.006Z,26.4
2019-02-05T05:34:06.379Z,26.3
2019-02-05T05:34:56.184Z,26.1
2019-02-05T05:35:51.629Z,25.9
2019-02-05T05:36:37.775Z,25.8
2019-02-05T05:37:25.989Z,25.8
2019-02-05T05:38:16.701Z,25.6
2019-02-05T05:39:06.246Z,25.6
2019-02-05T05:40:00.577Z,25.4
2019-02-05T05:40:47.115Z,25.3
2019-02-05T05:41:36.713Z,25.3
2019-02-05T05:42:26.814Z,25.2
2019-02-05T05:43:16.545Z,25.1
2019-02-05T05:44:10.043Z,25
2019-02-05T05:44:56.609Z,25
2019-02-05T05:45:49.848Z,25.1
2019-02-05T05:46:36.751Z,25.1
2019-02-05T05:47:27.219Z,25.2
2019-02-05T05:48:17.378Z,25.3
2019-02-05T05:49:07.653Z,25.4
2019-02-05T05:49:57.151Z,25.4
2019-02-05T05:50:47.574Z,25.5
2019-02-05T05:51:38.402Z,25.6
2019-02-05T05:52:27.163Z,25.8
2019-02-05T05:53:17.413Z,25.8
2019-02-05T05:54:07.688Z,25.9
2019-02-05T05:54:59.572Z,26.1
2019-02-05T05:55:47.312Z,26.2
2019-02-05T05:56:36.555Z,26.3
2019-02-05T05:57:27.632Z,26.3
2019-02-05T05:58:32.655Z,26.4
2019-02-05T05:59:07.436Z,26.4
2019-02-05T05:59:57.640Z,26.3
2019-02-05T06:00:51.308Z,26.2
2019-02-05T06:01:37.697Z,26.1
2019-02-05T06:02:27.540Z,25.9
2019-02-05T06:03:18.238Z,25.8
2019-02-05T06:04:08.450Z,25.7
2019-02-05T06:06:23.480Z,25.5
2019-02-05T06:07:13.119Z,25.5
2019-02-05T06:08:04.432Z,25.4
2019-02-05T06:08:56.542Z,25.3
2019-02-05T06:09:44.119Z,25.2
2019-02-05T06:10:33.556Z,25.1
2019-02-05T06:11:23.695Z,25.1
2019-02-05T06:12:13.496Z,25.1
2019-02-05T06:13:04.785Z,25.2
2019-02-05T06:13:54.704Z,25.3
2019-02-05T06:14:45.343Z,25.4
2019-02-05T06:15:37.727Z,25.4
2019-02-05T06:16:24.619Z,25.5
2019-02-05T06:17:14.099Z,25.6
2019-02-05T06:18:08.844Z,25.7
2019-02-05T06:18:55.127Z,25.8
2019-02-05T06:19:44.064Z,25.9
2019-02-05T06:20:34.722Z,26.1
2019-02-05T06:21:24.146Z,26.1
2019-02-05T06:22:15.142Z,26.2
2019-02-05T06:23:05.402Z,26.3
2019-02-05T06:23:58.381Z,26.3
2019-02-05T06:24:45.056Z,26.3
2019-02-05T06:25:34.765Z,26.3
2019-02-05T06:26:27.817Z,26.3
2019-02-05T06:27:15.123Z,26.2
2019-02-05T06:28:05.481Z,26.1
2019-02-05T06:28:55.820Z,26.1
2019-02-05T06:29:46.790Z,26.1
2019-02-05T06:30:35.108Z,26.1
2019-02-05T06:31:25.453Z,26
2019-02-05T06:32:15.834Z,25.9
2019-02-05T06:33:07.063Z,26
2019-02-05T06:33:55.856Z,26
2019-02-05T06:34:45.695Z,26.1
2019-02-05T06:35:35.766Z,26.2
2019-02-05T06:36:26.591Z,26.2
2019-02-05T06:37:16.391Z,26.3
2019-02-05T06:38:06.125Z,26.3
2019-02-05T06:38:58.253Z,26.1
2019-02-05T06:39:46.397Z,26
2019-02-05T06:40:37.062Z,25.9
2019-02-05T06:41:26.107Z,25.8
2019-02-05T06:42:17.645Z,25.7
2019-02-05T06:43:06.489Z,25.6
2019-02-05T06:43:55.927Z,25.5
2019-02-05T06:44:47.834Z,25.4
2019-02-05T06:45:36.354Z,25.4
2019-02-05T06:46:26.665Z,25.3
2019-02-05T06:47:16.506Z,25.3
2019-02-05T06:48:09.572Z,25.1
2019-02-05T06:48:56.832Z,25.1
2019-02-05T06:49:46.995Z,25
2019-02-05T06:50:37.275Z,24.9
2019-02-05T06:51:26.892Z,24.9
2019-02-05T06:52:17.462Z,24.8
2019-02-05T06:53:07.282Z,24.8
2019-02-05T06:53:59.144Z,24.8
2019-02-05T06:54:47.065Z,24.7
2019-02-05T06:55:37.133Z,24.6
2019-02-05T06:56:27.466Z,24.8
2019-02-05T06:57:17.561Z,24.9
2019-02-05T06:58:07.347Z,24.9
2019-02-05T06:58:56.736Z,25
2019-02-05T06:59:48.562Z,25.1
2019-02-05T07:00:36.576Z,25.2
2019-02-05T07:01:27.801Z,25.3
2019-02-05T07:02:16.964Z,25.3
2019-02-05T07:03:10.689Z,25.3
2019-02-05T07:03:58.171Z,25.3
2019-02-05T07:06:23.086Z,25
2019-02-05T07:07:13.101Z,24.9
2019-02-05T07:08:03.501Z,24.9
2019-02-05T07:08:55.461Z,24.8
2019-02-05T07:09:43.096Z,24.8
2019-02-05T07:10:34.008Z,24.8
2019-02-05T07:11:24.106Z,24.7
2019-02-05T07:12:13.770Z,24.7
2019-02-05T07:13:03.939Z,24.6
2019-02-05T07:13:53.913Z,24.6
2019-02-05T07:14:46.255Z,24.5
2019-02-05T07:15:34.121Z,24.4
2019-02-05T07:16:24.358Z,24.4
2019-02-05T07:17:13.822Z,24.4
2019-02-05T07:18:08.503Z,24.3
2019-02-05T07:18:53.957Z,24.3
2019-02-05T07:19:44.575Z,24.3
2019-02-05T07:20:35.225Z,24.2
2019-02-05T07:21:24.415Z,24.4
2019-02-05T07:22:15.147Z,24.4
2019-02-05T07:23:04.967Z,24.6
2019-02-05T07:23:56.844Z,24.6
2019-02-05T07:24:44.125Z,24.8
2019-02-05T07:25:34.989Z,24.8
2019-02-05T07:26:24.754Z,24.9
2019-02-05T07:27:14.840Z,24.9
2019-02-05T07:28:04.120Z,25
2019-02-05T07:29:08.324Z,25.1
2019-02-05T07:29:47.308Z,25.1
2019-02-05T07:30:35.114Z,25.1
2019-02-05T07:31:25.127Z,25
2019-02-05T07:32:15.257Z,24.9
2019-02-05T07:33:05.332Z,24.8
2019-02-05T07:33:55.327Z,24.7
2019-02-05T07:34:45.641Z,24.7
2019-02-05T07:35:37.075Z,24.6
2019-02-05T07:36:25.360Z,24.5
2019-02-05T07:37:16.477Z,24.4
2019-02-05T07:38:06.020Z,24.5
2019-02-05T07:38:54.701Z,24.4
2019-02-05T07:39:44.983Z,24.4
2019-02-05T07:40:35.697Z,24.3
2019-02-05T07:41:27.234Z,24.3
2019-02-05T07:42:15.500Z,24.3
2019-02-05T07:43:05.084Z,24.2
2019-02-05T07:43:55.416Z,24.1
2019-02-05T07:44:46.891Z,24.1
2019-02-05T07:45:35.305Z,24.3
2019-02-05T07:46:26.191Z,24.4
2019-02-05T07:47:17.803Z,24.4
2019-02-05T07:48:05.836Z,24.5
2019-02-05T07:48:56.420Z,24.6
2019-02-05T07:49:47.499Z,24.7
2019-02-05T07:50:38.391Z,24.8
2019-02-05T07:51:27.001Z,24.8
2019-02-05T07:52:16.701Z,24.9
2019-02-05T07:53:06.764Z,25
2019-02-05T07:53:56.240Z,25.1
2019-02-05T07:54:47.042Z,25
2019-02-05T07:55:36.575Z,24.9
2019-02-05T07:56:29.818Z,24.8
2019-02-05T07:57:17.210Z,24.7
2019-02-05T07:58:07.853Z,24.7
2019-02-05T07:59:09.483Z,24.6
2019-02-05T07:59:51.378Z,24.4
2019-02-05T08:00:38.073Z,24.4
2019-02-05T08:01:27.622Z,24.4
2019-02-05T08:02:20.313Z,24.3
2019-02-05T08:03:07.711Z,24.3
2019-02-05T08:03:57.719Z,24.3
2019-02-05T08:04:48.154Z,24.3
2019-02-05T08:05:38.090Z,24.2
2019-02-05T08:06:27.942Z,24.1
2019-02-05T08:07:17.950Z,24.1
2019-02-05T08:08:23.089Z,24
2019-02-05T08:08:58.040Z,23.9
2019-02-05T08:09:47.590Z,24.1
2019-02-05T08:10:38.070Z,24.2
2019-02-05T08:11:28.637Z,24.3
2019-02-05T08:12:18.118Z,24.3
2019-02-05T08:13:08.479Z,24.4
2019-02-05T08:13:59.074Z,24.4
2019-02-05T08:14:48.025Z,24.5
2019-02-05T08:15:38.022Z,24.6
2019-02-05T08:16:28.821Z,24.6
2019-02-05T08:17:19.221Z,24.6
2019-02-05T08:18:08.703Z,24.6
2019-02-05T08:18:59.007Z,24.6
2019-02-05T08:19:51.598Z,24.5
2019-02-05T08:20:39.479Z,24.4
2019-02-05T08:21:29.048Z,24.3
2019-02-05T08:22:19.363Z,24.3
2019-02-05T08:23:08.832Z,24.3
2019-02-05T08:23:59.366Z,24.2
2019-02-05T08:24:49.377Z,24.1
2019-02-05T08:25:41.501Z,24.1
2019-02-05T08:26:29.533Z,24.1
2019-02-05T08:27:18.837Z,24.1
2019-02-05T08:28:09.853Z,24
2019-02-05T08:29:00.391Z,24
2019-02-05T08:29:48.665Z,23.9
2019-02-05T08:30:39.068Z,23.9
2019-02-05T08:31:30.011Z,23.8
2019-02-05T08:32:20.023Z,23.8
2019-02-05T08:33:09.018Z,23.8
2019-02-05T08:33:59.295Z,23.8
2019-02-05T08:34:52.980Z,23.9
2019-02-05T08:35:39.425Z,23.9
2019-02-05T08:36:29.960Z,24
2019-02-05T08:37:20.915Z,24.1
2019-02-05T08:38:09.847Z,24.1
2019-02-05T08:39:00.657Z,24.3
2019-02-05T08:39:48.630Z,24.3
2019-02-05T08:40:42.876Z,24.3
2019-02-05T08:41:28.745Z,24.4
2019-02-05T08:42:19.887Z,24.5
2019-02-05T08:43:09.912Z,24.5
2019-02-05T08:44:01.315Z,24.4
2019-02-05T08:44:50.250Z,24.4
2019-02-05T08:45:40.532Z,24.3
2019-02-05T08:46:31.755Z,24.3
2019-02-05T08:47:20.670Z,24.2
2019-02-05T08:48:11.027Z,24.1
2019-02-05T08:49:01.361Z,24.1
2019-02-05T08:49:52.367Z,24.1
2019-02-05T08:50:40.861Z,24
2019-02-05T08:51:29.911Z,23.9
2019-02-05T08:52:21.081Z,23.9
2019-02-05T08:53:10.417Z,23.9
2019-02-05T08:54:00.906Z,23.9
2019-02-05T08:54:51.003Z,23.9
2019-02-05T08:55:43.786Z,23.9
2019-02-05T08:56:31.184Z,23.9
2019-02-05T08:57:21.431Z,23.8
2019-02-05T08:58:11.594Z,23.8
2019-02-05T08:59:01.481Z,23.8
2019-02-05T08:59:51.984Z,23.8
2019-02-05T09:00:42.621Z,23.8
2019-02-05T09:01:34.734Z,23.9
2019-02-05T09:02:21.218Z,23.9
2019-02-05T09:03:12.389Z,23.9
2019-02-05T09:04:01.903Z,23.9
2019-02-05T09:04:51.906Z,24
2019-02-05T09:05:42.532Z,24
2019-02-05T09:06:35.820Z,24.1
2019-02-05T09:07:23.578Z,24.1
2019-02-05T09:08:12.341Z,24.3
2019-02-05T09:09:02.248Z,24.3
2019-02-05T09:09:52.327Z,24.4
2019-02-05T09:10:42.858Z,24.4
2019-02-05T09:11:31.703Z,24.3
2019-02-05T09:12:25.583Z,24.3
2019-02-05T09:13:12.561Z,24.1
2019-02-05T09:14:16.845Z,24.1
2019-02-05T09:14:52.208Z,24
2019-02-05T09:15:42.242Z,24
2019-02-05T09:16:35.322Z,23.9
2019-02-05T09:17:25.389Z,23.9
2019-02-05T09:18:11.598Z,23.8
2019-02-05T09:19:03.837Z,23.8
2019-02-05T09:19:52.452Z,23.8
2019-02-05T09:20:42.513Z,23.8
2019-02-05T09:21:33.340Z,23.8
2019-02-05T09:22:25.122Z,23.8
2019-02-05T09:23:16.903Z,23.8
2019-02-05T09:24:03.272Z,23.8
2019-02-05T09:24:53.354Z,23.8
2019-02-05T09:25:48.072Z,23.8
2019-02-05T09:26:33.692Z,23.8
2019-02-05T09:27:24.385Z,23.8
2019-02-05T09:28:14.145Z,23.8
2019-02-05T09:29:04.141Z,23.8
2019-02-05T09:29:53.899Z,23.8
2019-02-05T09:30:44.573Z,23.8
2019-02-05T09:31:36.586Z,23.8
2019-02-05T09:32:24.086Z,23.9
2019-02-05T09:33:14.265Z,23.9
2019-02-05T09:34:03.766Z,24
2019-02-05T09:34:54.358Z,24.1
2019-02-05T09:35:44.202Z,24.1
2019-02-05T09:36:33.428Z,24.3
2019-02-05T09:37:25.659Z,24.3
2019-02-05T09:39:54.685Z,24.1
2019-02-05T09:40:44.009Z,24.1
2019-02-05T09:41:34.038Z,24
2019-02-05T09:42:23.861Z,23.9
2019-02-05T09:43:16.303Z,23.9
2019-02-05T09:44:04.643Z,23.9
2019-02-05T09:44:55.363Z,23.8
2019-02-05T09:45:45.168Z,23.8
2019-02-05T09:46:37.037Z,23.8
2019-02-05T09:47:25.486Z,23.8
2019-02-05T09:48:15.388Z,23.8
2019-02-05T09:49:19.473Z,23.7
2019-02-05T09:49:55.317Z,23.7
2019-02-05T09:50:52.648Z,23.7
2019-02-05T09:51:35.998Z,23.7
2019-02-05T09:52:28.562Z,23.7
2019-02-05T09:53:15.653Z,23.8
2019-02-05T09:54:05.648Z,23.8
2019-02-05T09:54:55.356Z,23.8
2019-02-05T09:55:46.035Z,23.7
2019-02-05T09:56:35.827Z,23.8
2019-02-05T09:57:25.997Z,23.7
2019-02-05T09:58:16.974Z,23.8
2019-02-05T09:59:06.226Z,23.8
2019-02-05T09:59:55.225Z,23.8
2019-02-05T10:00:46.278Z,23.8
2019-02-05T10:01:35.655Z,23.9
2019-02-05T10:02:26.991Z,23.9
2019-02-05T10:03:16.650Z,24.1
2019-02-05T10:04:06.692Z,24.2
2019-02-05T10:04:56.410Z,24.2
2019-02-05T10:07:38.589Z,24.1
2019-02-05T10:08:16.392Z,23.9
2019-02-05T10:09:19.742Z,23.9
2019-02-05T10:10:12.109Z,23.8
2019-02-05T10:10:47.164Z,23.8
2019-02-05T10:12:06.607Z,23.8
2019-02-05T10:12:34.429Z,23.7
2019-02-05T10:14:09.527Z,23.7
2019-02-05T10:14:53.717Z,23.7
2019-02-05T10:15:41.592Z,23.6
2019-02-05T10:16:10.084Z,23.6
2019-02-05T10:17:13.276Z,23.6
2019-02-05T10:18:36.396Z,23.6
2019-02-05T10:18:53.046Z,23.6
2019-02-05T10:20:10.724Z,23.7
2019-02-05T10:20:46.119Z,23.6
2019-02-05T10:22:03.780Z,23.7
2019-02-05T10:23:02.163Z,23.7
2019-02-05T10:23:36.446Z,23.6
2019-02-05T10:24:26.866Z,23.7
2019-02-05T10:25:29.878Z,23.6
2019-02-05T10:26:27.499Z,23.7
2019-02-05T10:26:59.883Z,23.7
2019-02-05T10:27:45.708Z,23.7
2019-02-05T10:28:35.539Z,23.8
2019-02-05T10:29:28.440Z,23.8
2019-02-05T10:30:13.985Z,23.9
2019-02-05T10:31:05.104Z,24
2019-02-05T10:32:10.973Z,24.1
2019-02-05T10:32:46.090Z,24.1
2019-02-05T10:33:36.233Z,24.1
2019-02-05T10:34:38.533Z,24.1
2019-02-05T10:35:17.967Z,24
2019-02-05T10:36:09.342Z,23.9
2019-02-05T10:36:55.835Z,23.9
2019-02-05T10:38:01.143Z,23.8
2019-02-05T10:38:36.450Z,23.8
2019-02-05T10:39:26.995Z,23.7
2019-02-05T10:40:16.395Z,23.7
2019-02-05T10:41:06.912Z,23.6
2019-02-05T10:41:56.384Z,23.6
2019-02-05T10:42:49.315Z,23.6
2019-02-05T10:43:36.624Z,23.6
2019-02-05T10:44:28.544Z,23.6
2019-02-05T10:45:49.017Z,23.6
2019-02-05T10:46:06.125Z,23.6
2019-02-05T10:46:56.067Z,23.6
2019-02-05T10:47:46.717Z,23.6
2019-02-05T10:48:37.405Z,23.6
2019-02-05T10:49:27.662Z,23.7
2019-02-05T10:50:20.635Z,23.7
2019-02-05T10:51:06.325Z,23.7
2019-02-05T10:51:55.662Z,23.6
2019-02-05T10:52:47.021Z,23.6
2019-02-05T10:53:36.807Z,23.6
2019-02-05T10:54:26.804Z,23.6
2019-02-05T10:55:16.927Z,23.7
2019-02-05T10:56:08.714Z,23.7
2019-02-05T10:56:57.134Z,23.8
2019-02-05T10:57:47.847Z,23.9
2019-02-05T10:58:36.621Z,24
2019-02-05T10:59:28.769Z,24.1
2019-02-05T11:00:17.323Z,24.1
2019-02-05T11:01:07.319Z,24.1
2019-02-05T11:01:58.694Z,24
2019-02-05T11:02:48.811Z,23.9
2019-02-05T11:03:37.704Z,23.9
2019-02-05T11:04:28.276Z,23.8
2019-02-05T11:05:19.900Z,23.8
2019-02-05T11:06:07.041Z,23.8
2019-02-05T11:06:58.281Z,23.7
2019-02-05T11:07:48.215Z,23.6
2019-02-05T11:08:53.228Z,23.6
2019-02-05T11:09:27.823Z,23.6
2019-02-05T11:10:18.465Z,23.6
2019-02-05T11:11:10.573Z,23.6
2019-02-05T11:11:58.408Z,23.6
2019-02-05T11:12:48.375Z,23.6
2019-02-05T11:13:38.415Z,23.6
2019-02-05T11:14:28.378Z,23.6
2019-02-05T11:15:19.355Z,23.7
2019-02-05T11:16:09.520Z,23.7
2019-02-05T11:16:59.790Z,23.7
2019-02-05T11:17:48.678Z,23.7
2019-02-05T11:18:39.248Z,23.6
2019-02-05T11:19:28.890Z,23.6
2019-02-05T11:20:21.020Z,23.6